GIJÓN CAMPUS, ASTURIAS

latitud = 43° 31' 23''N | Longitud = 005° 37' 16''W
26 metros sobre el nivel del mar | datos mensuales

Fecha, hora, temperatura, viento dirección y velocidad, humedad y presión.

  • 24-05-2018 16:00:00 | 21.70°C | Nordeste |15.00 km/h | 74.00% | 1011.90 hPa
  • 24-05-2018 15:00:00 | 21.10°C | Nordeste |11.00 km/h | 76.00% | 1012.00 hPa
  • 24-05-2018 14:00:00 | 20.90°C | Nordeste |10.00 km/h | 75.00% | 1012.20 hPa
  • 24-05-2018 13:00:00 | 20.60°C | Nordeste |11.00 km/h | 78.00% | 1012.70 hPa
  • 24-05-2018 12:00:00 | 20.20°C | Nordeste |12.00 km/h | 80.00% | 1012.80 hPa
  • 24-05-2018 11:00:00 | 19.40°C | Norte |8.00 km/h | 81.00% | 1012.70 hPa
  • 24-05-2018 10:00:00 | 18.40°C | Nordeste |5.00 km/h | 82.00% | 1012.90 hPa
  • 24-05-2018 08:00:00 | 16.10°C | Calma |0.00 km/h | 96.00% | 1012.80 hPa
  • 24-05-2018 08:00:00 | 16.10°C | Calma |0.00 km/h | 96.00% | 1012.80 hPa
  • 24-05-2018 07:00:00 | 15.30°C | Sudeste |2.00 km/h | 96.00% | 1012.40 hPa
  • 24-05-2018 06:00:00 | 14.90°C | Este |4.00 km/h | 97.00% | 1012.30 hPa
  • 24-05-2018 05:00:00 | 14.40°C | Sudeste |3.00 km/h | 96.00% | 1012.50 hPa
  • 24-05-2018 04:00:00 | 14.90°C | Sur |3.00 km/h | 96.00% | 1012.70 hPa
  • 24-05-2018 03:00:00 | 15.50°C | Sudeste |4.00 km/h | 93.00% | 1013.10 hPa
  • 24-05-2018 02:00:00 | 16.40°C | Este |2.00 km/h | 91.00% | 1013.30 hPa
  • 24-05-2018 01:00:00 | 16.60°C | Sudeste |4.00 km/h | 90.00% | 1013.60 hPa
  • 24-05-2018 00:00:00 | 16.90°C | Este |7.00 km/h | 88.00% | 1013.60 hPa
  • 23-05-2018 23:00:00 | 17.00°C | Este |5.00 km/h | 88.00% | 1013.40 hPa
  • 23-05-2018 22:00:00 | 17.20°C | Este |7.00 km/h | 88.00% | 1012.90 hPa
  • 23-05-2018 21:00:00 | 17.60°C | Este |8.00 km/h | 85.00% | 1012.70 hPa
  • 23-05-2018 20:00:00 | 18.50°C | Este |5.00 km/h | 81.00% | 1012.30 hPa
  • 23-05-2018 19:00:00 | 18.90°C | Nordeste |9.00 km/h | 78.00% | 1012.20 hPa
  • 23-05-2018 18:00:00 | 19.70°C | Nordeste |8.00 km/h | 75.00% | 1012.40 hPa
  • 23-05-2018 17:00:00 | 21.10°C | Nordeste |8.00 km/h | 70.00% | 1012.90 hPa
    • Gijón hora a hora, datos reales de la temperatura, viento dirección, velocidad, más la humedad relativa y presión atmosférica.
      La estación meteorológica del Campus de Viesques de Gijón hora a hora, mes a mes, año a año; presentada de una forma gráfica, datos recogidos desde el mes de enero del año 2014. Recomendamos un ordenador de sobremesa: https://meteorologia.tike10.com/asturias-gijon.php